Time;durP1;ratioP1;P1;durP2;ratioP2;P2;SDS_P1;SDS_P2;PMS_P1;PMS_P2;Temp;Humidity;BMP_temperature;BMP_pressure;BME280_temperature;BME280_humidity;BME280_pressure;Samples;Min_cycle;Max_cycle;Signal;HPM_P1;HPM_P2
2022/08/07 00:02:38;;;;;;;1.57;0.70;;;;;;;;;;10397681;28;20219;-71
2022/08/07 00:07:39;;;;;;;1.20;0.60;;;;;;;;;;10395104;28;20242;-72
2022/08/07 00:12:40;;;;;;;2.47;0.63;;;;;;;;;;10402641;28;20251;-71
2022/08/07 00:17:41;;;;;;;2.27;0.70;;;;;;;;;;10387979;28;20223;-70
2022/08/07 00:22:42;;;;;;;1.40;0.60;;;;;;;;;;10387898;28;20721;-71
2022/08/07 00:27:43;;;;;;;1.43;0.60;;;;;;;;;;10407651;28;20247;-71
2022/08/07 00:32:48;;;;;;;2.40;0.60;;;;;;;;;;10406852;28;20239;-71
2022/08/07 00:37:49;;;;;;;3.87;0.60;;;;;;;;;;10394573;28;20323;-71
2022/08/07 00:42:50;;;;;;;3.90;0.87;;;;;;;;;;10391378;28;20323;-70
2022/08/07 00:47:51;;;;;;;1.53;0.60;;;;;;;;;;10392770;28;20269;-71
2022/08/07 00:52:52;;;;;;;0.60;0.40;;;;;;;;;;10401451;28;20663;-71
2022/08/07 00:57:53;;;;;;;1.57;0.60;;;;;;;;;;10395371;28;20232;-69
2022/08/07 01:02:57;;;;;;;0.97;0.57;;;;;;;;;;10390005;28;20878;-71
2022/08/07 01:07:58;;;;;;;1.27;0.93;;;;;;;;;;10394914;28;20665;-70
2022/08/07 01:12:59;;;;;;;1.70;0.63;;;;;;;;;;10395403;28;20235;-71
2022/08/07 01:18:00;;;;;;;1.97;0.80;;;;;;;;;;10392319;28;20306;-72
2022/08/07 01:23:02;;;;;;;1.07;0.47;;;;;;;;;;10394007;28;20249;-71
2022/08/07 01:28:04;;;;;;;2.90;0.50;;;;;;;;;;10387664;28;20231;-71
2022/08/07 01:33:05;;;;;;;2.33;0.53;;;;;;;;;;10404538;28;20219;-71
2022/08/07 01:38:06;;;;;;;0.90;0.57;;;;;;;;;;10400640;28;20240;-71
2022/08/07 01:43:07;;;;;;;3.67;0.50;;;;;;;;;;10407353;28;20311;-72
2022/08/07 01:48:08;;;;;;;2.63;0.67;;;;;;;;;;10396094;28;20829;-70
2022/08/07 01:53:09;;;;;;;0.87;0.50;;;;;;;;;;10400699;28;20273;-70
2022/08/07 01:58:12;;;;;;;4.30;1.00;;;;;;;;;;10404216;28;20318;-71
2022/08/07 02:03:15;;;;;;;1.43;0.50;;;;;;;;;;10399725;28;20227;-71
2022/08/07 02:08:17;;;;;;;0.97;0.67;;;;;;;;;;10407725;28;20243;-73
2022/08/07 02:13:21;;;;;;;0.87;0.40;;;;;;;;;;10399794;28;20233;-70
2022/08/07 02:18:22;;;;;;;3.03;0.60;;;;;;;;;;10394591;28;20224;-71
2022/08/07 02:23:24;;;;;;;1.20;0.70;;;;;;;;;;10399882;28;20311;-73
2022/08/07 02:28:27;;;;;;;0.90;0.50;;;;;;;;;;10405892;28;20304;-73
2022/08/07 02:33:29;;;;;;;0.83;0.60;;;;;;;;;;10409179;28;20227;-72
2022/08/07 02:38:32;;;;;;;3.23;0.77;;;;;;;;;;10404256;28;20278;-71
2022/08/07 02:43:35;;;;;;;0.50;0.50;;;;;;;;;;10394827;28;20260;-71
2022/08/07 02:48:37;;;;;;;0.60;0.50;;;;;;;;;;10408081;28;20219;-71
2022/08/07 02:53:39;;;;;;;3.50;0.70;;;;;;;;;;10390940;28;20225;-71
2022/08/07 02:58:40;;;;;;;0.50;0.50;;;;;;;;;;10381426;28;20898;-70
2022/08/07 03:03:42;;;;;;;1.33;0.43;;;;;;;;;;10402609;28;20224;-72
2022/08/07 03:08:43;;;;;;;1.27;0.50;;;;;;;;;;10395776;28;20251;-72
2022/08/07 03:13:45;;;;;;;4.07;0.80;;;;;;;;;;10402772;28;20355;-71
2022/08/07 03:18:46;;;;;;;1.37;0.40;;;;;;;;;;10388740;28;20228;-71
2022/08/07 03:23:48;;;;;;;1.97;0.50;;;;;;;;;;10397242;28;20595;-70
2022/08/07 03:28:49;;;;;;;2.80;0.53;;;;;;;;;;10397258;28;20216;-72
2022/08/07 03:33:52;;;;;;;0.60;0.60;;;;;;;;;;10400680;28;20227;-71
2022/08/07 03:38:55;;;;;;;1.30;0.63;;;;;;;;;;10396849;28;20226;-70
2022/08/07 03:43:56;;;;;;;0.70;0.40;;;;;;;;;;10405015;28;20596;-70
2022/08/07 03:48:57;;;;;;;1.53;0.60;;;;;;;;;;10390112;28;20225;-72
2022/08/07 03:54:01;;;;;;;2.63;0.83;;;;;;;;;;10389418;28;20255;-71
2022/08/07 03:59:04;;;;;;;0.50;0.40;;;;;;;;;;10396363;28;20220;-72
2022/08/07 04:04:05;;;;;;;1.20;0.50;;;;;;;;;;10406923;28;20616;-71
2022/08/07 04:09:07;;;;;;;2.60;0.70;;;;;;;;;;10378460;28;20243;-71
2022/08/07 04:14:08;;;;;;;2.07;0.50;;;;;;;;;;10397030;28;20301;-70
2022/08/07 04:19:09;;;;;;;0.40;0.40;;;;;;;;;;10396704;28;20231;-70
2022/08/07 04:24:13;;;;;;;3.03;0.60;;;;;;;;;;10394378;28;20259;-71
2022/08/07 04:29:14;;;;;;;3.37;0.60;;;;;;;;;;10403437;28;20224;-70
2022/08/07 04:34:15;;;;;;;1.83;0.67;;;;;;;;;;10388558;28;20224;-71
2022/08/07 04:39:16;;;;;;;1.63;0.57;;;;;;;;;;10387845;28;20588;-71
2022/08/07 04:44:17;;;;;;;0.60;0.40;;;;;;;;;;10393759;28;20725;-71
2022/08/07 04:49:35;;;;;;;2.37;0.77;;;;;;;;;;10402905;28;20262;-72
2022/08/07 04:54:47;;;;;;;2.40;0.80;;;;;;;;;;10391973;28;20218;-72
2022/08/07 04:59:48;;;;;;;2.20;0.70;;;;;;;;;;10390248;28;20277;-72
2022/08/07 05:05:01;;;;;;;2.17;0.67;;;;;;;;;;10397247;28;20783;-71
2022/08/07 05:10:11;;;;;;;0.30;0.30;;;;;;;;;;10395316;28;20217;-70
2022/08/07 05:15:34;;;;;;;0.87;0.40;;;;;;;;;;10402097;28;20223;-70
2022/08/07 05:20:46;;;;;;;0.53;0.50;;;;;;;;;;10378071;28;20306;-69
2022/08/07 05:25:48;;;;;;;1.17;0.70;;;;;;;;;;10398260;28;20267;-71
2022/08/07 05:30:50;;;;;;;1.03;0.60;;;;;;;;;;10404806;28;20295;-71
2022/08/07 05:35:52;;;;;;;3.03;0.60;;;;;;;;;;10400759;28;20268;-70
2022/08/07 05:40:53;;;;;;;2.53;0.53;;;;;;;;;;10405689;28;20776;-70
2022/08/07 05:45:55;;;;;;;1.53;0.57;;;;;;;;;;10401421;28;20715;-70
2022/08/07 05:50:57;;;;;;;3.33;0.50;;;;;;;;;;10417471;28;20723;-70
2022/08/07 05:55:58;;;;;;;1.10;0.60;;;;;;;;;;10394641;28;20238;-71
2022/08/07 06:01:03;;;;;;;1.33;0.50;;;;;;;;;;10405833;28;20224;-70
2022/08/07 06:06:05;;;;;;;1.37;0.57;;;;;;;;;;10402322;28;20322;-71
2022/08/07 06:11:07;;;;;;;0.70;0.30;;;;;;;;;;10408312;28;20322;-72
2022/08/07 06:16:09;;;;;;;1.03;0.40;;;;;;;;;;10406728;28;20227;-73
2022/08/07 06:21:13;;;;;;;1.40;0.40;;;;;;;;;;10406395;28;20228;-73
2022/08/07 06:26:14;;;;;;;0.83;0.37;;;;;;;;;;10404764;28;20234;-72
2022/08/07 06:31:15;;;;;;;2.67;0.67;;;;;;;;;;10404869;28;20588;-73
2022/08/07 06:36:20;;;;;;;2.33;0.60;;;;;;;;;;10397266;28;20278;-72
2022/08/07 06:41:29;;;;;;;4.97;0.60;;;;;;;;;;10406182;28;20274;-74
2022/08/07 06:46:30;;;;;;;1.80;0.30;;;;;;;;;;10403863;28;20229;-71
2022/08/07 06:51:33;;;;;;;3.20;0.67;;;;;;;;;;10399485;28;20298;-72
2022/08/07 06:56:46;;;;;;;1.33;0.60;;;;;;;;;;10391655;28;20224;-73
2022/08/07 07:01:47;;;;;;;2.63;0.70;;;;;;;;;;10396123;28;20835;-76
2022/08/07 07:06:48;;;;;;;1.53;0.57;;;;;;;;;;10403511;28;20286;-77
2022/08/07 07:12:10;;;;;;;1.23;0.50;;;;;;;;;;10395815;28;20233;-75
2022/08/07 07:17:14;;;;;;;1.50;0.43;;;;;;;;;;10396509;28;20684;-73
2022/08/07 07:22:16;;;;;;;4.13;0.70;;;;;;;;;;10396794;28;20311;-71
2022/08/07 07:27:19;;;;;;;0.73;0.60;;;;;;;;;;10396451;28;20220;-71
2022/08/07 07:32:21;;;;;;;0.50;0.50;;;;;;;;;;10395819;28;20280;-72
2022/08/07 07:37:24;;;;;;;2.93;0.63;;;;;;;;;;10387992;28;20228;-71
2022/08/07 07:42:26;;;;;;;1.20;0.73;;;;;;;;;;10394026;28;20250;-72
2022/08/07 07:47:27;;;;;;;0.40;0.40;;;;;;;;;;10396710;28;20227;-71
2022/08/07 07:52:29;;;;;;;3.70;0.73;;;;;;;;;;10395815;28;20752;-71
2022/08/07 07:57:31;;;;;;;0.93;0.70;;;;;;;;;;10402575;28;20340;-74
2022/08/07 08:02:32;;;;;;;1.00;0.53;;;;;;;;;;10394234;28;20605;-73
2022/08/07 08:07:35;;;;;;;1.90;0.67;;;;;;;;;;10396718;28;20399;-74
2022/08/07 08:12:37;;;;;;;2.33;0.70;;;;;;;;;;10395631;28;20252;-73
2022/08/07 08:17:40;;;;;;;0.83;0.70;;;;;;;;;;10396225;28;20220;-74
2022/08/07 08:28:03;;;;;;;2.23;0.70;;;;;;;;;;10392767;28;20680;-73
2022/08/07 08:33:05;;;;;;;1.73;0.60;;;;;;;;;;10403176;28;20224;-72
2022/08/07 08:38:07;;;;;;;0.80;0.67;;;;;;;;;;10396743;28;20309;-72
2022/08/07 08:43:08;;;;;;;1.60;0.80;;;;;;;;;;10394434;28;20303;-72
2022/08/07 08:48:17;;;;;;;1.17;0.83;;;;;;;;;;10393680;28;20217;-73
2022/08/07 08:53:25;;;;;;;1.17;0.70;;;;;;;;;;10406156;28;20236;-74
2022/08/07 08:58:42;;;;;;;0.90;0.70;;;;;;;;;;10404752;28;20655;-74
2022/08/07 09:03:49;;;;;;;1.27;0.70;;;;;;;;;;10406330;28;20236;-74
2022/08/07 09:08:56;;;;;;;1.03;0.50;;;;;;;;;;10392115;28;20236;-73
2022/08/07 09:14:07;;;;;;;1.83;0.80;;;;;;;;;;10387869;28;20258;-72
2022/08/07 09:19:27;;;;;;;0.90;0.50;;;;;;;;;;10408718;28;20311;-73
2022/08/07 09:24:31;;;;;;;2.57;0.50;;;;;;;;;;10399835;28;20314;-72
2022/08/07 09:29:32;;;;;;;0.60;0.60;;;;;;;;;;10402096;28;20223;-76
2022/08/07 09:34:51;;;;;;;0.97;0.57;;;;;;;;;;10396591;28;20229;-74
2022/08/07 09:40:04;;;;;;;0.60;0.60;;;;;;;;;;10396992;28;20216;-73
2022/08/07 09:45:18;;;;;;;3.03;1.00;;;;;;;;;;10363563;28;20228;-73
2022/08/07 09:50:27;;;;;;;0.63;0.57;;;;;;;;;;10390155;28;20629;-75
2022/08/07 09:55:42;;;;;;;0.93;0.53;;;;;;;;;;10404782;28;20236;-73
2022/08/07 10:00:55;;;;;;;2.17;0.70;;;;;;;;;;10392603;28;20271;-74
2022/08/07 10:05:56;;;;;;;1.37;0.67;;;;;;;;;;10407277;28;20217;-75
2022/08/07 10:10:57;;;;;;;1.90;0.70;;;;;;;;;;10396418;28;20660;-74
2022/08/07 10:16:21;;;;;;;0.77;0.50;;;;;;;;;;10407863;28;20228;-72
2022/08/07 10:21:48;;;;;;;2.10;0.90;;;;;;;;;;10398289;28;20260;-72
2022/08/07 10:26:56;;;;;;;0.60;0.50;;;;;;;;;;10401213;28;20270;-73
2022/08/07 10:32:25;;;;;;;2.00;0.73;;;;;;;;;;10405613;28;20204;-72
2022/08/07 10:37:29;;;;;;;0.83;0.63;;;;;;;;;;10409802;28;20221;-73
2022/08/07 10:42:34;;;;;;;2.13;0.80;;;;;;;;;;10404079;28;20225;-72
2022/08/07 10:47:54;;;;;;;2.20;0.63;;;;;;;;;;10404354;28;20248;-72
2022/08/07 10:52:55;;;;;;;3.37;0.70;;;;;;;;;;10403365;28;20699;-72
2022/08/07 10:58:03;;;;;;;3.23;0.97;;;;;;;;;;10397149;28;20254;-72
2022/08/07 11:03:22;;;;;;;6.90;0.70;;;;;;;;;;10397514;28;20233;-73
2022/08/07 11:08:42;;;;;;;2.20;0.83;;;;;;;;;;10404767;28;20220;-73
2022/08/07 11:13:49;;;;;;;0.50;0.50;;;;;;;;;;10393350;28;20266;-73
2022/08/07 11:18:53;;;;;;;2.73;0.70;;;;;;;;;;10404149;28;20296;-73
2022/08/07 11:24:09;;;;;;;0.67;0.50;;;;;;;;;;10400700;28;20236;-72
2022/08/07 11:29:23;;;;;;;1.87;0.57;;;;;;;;;;10395385;28;20270;-72
2022/08/07 11:34:35;;;;;;;0.60;0.50;;;;;;;;;;10402143;28;20363;-72
2022/08/07 11:39:55;;;;;;;2.63;0.50;;;;;;;;;;10395621;28;20240;-73
2022/08/07 11:44:56;;;;;;;0.63;0.50;;;;;;;;;;10395133;28;20233;-72
2022/08/07 11:50:07;;;;;;;0.50;0.50;;;;;;;;;;10391753;28;20278;-73
2022/08/07 11:55:34;;;;;;;0.87;0.73;;;;;;;;;;10401538;28;20888;-72
2022/08/07 12:00:51;;;;;;;1.63;0.70;;;;;;;;;;10365052;28;20762;-72
2022/08/07 12:06:18;;;;;;;1.37;0.60;;;;;;;;;;10394539;28;20244;-73
2022/08/07 12:11:33;;;;;;;1.53;0.60;;;;;;;;;;10386509;28;20216;-72
2022/08/07 12:16:35;;;;;;;1.80;0.73;;;;;;;;;;10392435;28;20228;-73
2022/08/07 12:21:45;;;;;;;1.80;0.47;;;;;;;;;;10401537;28;20270;-73
2022/08/07 12:26:52;;;;;;;0.90;0.50;;;;;;;;;;10396537;28;20241;-73
2022/08/07 12:32:13;;;;;;;1.47;0.70;;;;;;;;;;10401534;28;20675;-74
2022/08/07 12:37:17;;;;;;;3.53;0.80;;;;;;;;;;10394049;28;20250;-74
2022/08/07 12:42:22;;;;;;;2.40;0.63;;;;;;;;;;10400419;28;20233;-74
2022/08/07 12:47:38;;;;;;;1.90;0.60;;;;;;;;;;10393839;28;20713;-73
2022/08/07 12:52:39;;;;;;;2.30;0.60;;;;;;;;;;10395180;28;20236;-74
2022/08/07 12:57:40;;;;;;;2.50;0.60;;;;;;;;;;10393883;28;20213;-73
2022/08/07 13:02:41;;;;;;;2.17;0.50;;;;;;;;;;10397490;28;20227;-73
2022/08/07 13:08:01;;;;;;;0.70;0.70;;;;;;;;;;10398236;28;20224;-73
2022/08/07 13:13:05;;;;;;;0.60;0.53;;;;;;;;;;10399873;28;20239;-73
2022/08/07 13:18:06;;;;;;;0.53;0.40;;;;;;;;;;10392708;28;20702;-73
2022/08/07 13:23:10;;;;;;;1.57;0.60;;;;;;;;;;10394040;28;20354;-73
2022/08/07 13:28:18;;;;;;;0.60;0.50;;;;;;;;;;10390086;28;20223;-74
2022/08/07 13:33:22;;;;;;;0.50;0.30;;;;;;;;;;10392945;28;20378;-73
2022/08/07 13:38:34;;;;;;;1.03;0.57;;;;;;;;;;10392469;28;20230;-74
2022/08/07 13:43:41;;;;;;;1.87;0.50;;;;;;;;;;10396638;28;20231;-73
2022/08/07 13:48:49;;;;;;;0.80;0.50;;;;;;;;;;10400527;28;20719;-73
2022/08/07 13:53:58;;;;;;;1.67;0.67;;;;;;;;;;10391542;28;20703;-72
2022/08/07 13:59:00;;;;;;;0.37;0.33;;;;;;;;;;10397490;28;20224;-73
2022/08/07 14:04:10;;;;;;;2.80;0.80;;;;;;;;;;10386329;28;20221;-74
2022/08/07 14:09:16;;;;;;;3.20;0.60;;;;;;;;;;10397642;28;20302;-75
2022/08/07 14:14:17;;;;;;;1.07;0.43;;;;;;;;;;10398130;28;20299;-73
2022/08/07 14:19:23;;;;;;;2.23;0.60;;;;;;;;;;10395963;28;20229;-73
2022/08/07 14:24:50;;;;;;;0.63;0.50;;;;;;;;;;10405896;28;20592;-73
2022/08/07 14:29:53;;;;;;;0.80;0.53;;;;;;;;;;10399118;28;20234;-73
2022/08/07 14:34:54;;;;;;;3.73;0.57;;;;;;;;;;10404253;28;20228;-73
2022/08/07 14:39:55;;;;;;;1.60;0.77;;;;;;;;;;10392421;28;20230;-73
2022/08/07 14:44:58;;;;;;;1.67;0.50;;;;;;;;;;10405006;28;20746;-74
2022/08/07 14:50:04;;;;;;;0.50;0.40;;;;;;;;;;10399531;28;20225;-73
2022/08/07 14:55:06;;;;;;;1.50;0.70;;;;;;;;;;10395532;28;20240;-73
2022/08/07 15:00:08;;;;;;;0.73;0.53;;;;;;;;;;10403312;28;20197;-73
2022/08/07 15:05:17;;;;;;;1.40;0.40;;;;;;;;;;10405502;28;20184;-73
2022/08/07 15:10:19;;;;;;;3.23;0.70;;;;;;;;;;10386675;28;20568;-73
2022/08/07 15:15:45;;;;;;;0.70;0.50;;;;;;;;;;10386817;28;20220;-74
2022/08/07 15:20:46;;;;;;;1.37;0.60;;;;;;;;;;10401105;28;20220;-73
2022/08/07 15:25:54;;;;;;;1.20;0.47;;;;;;;;;;10391059;28;20726;-73
2022/08/07 15:30:58;;;;;;;3.63;0.80;;;;;;;;;;10399764;28;20216;-73
2022/08/07 15:36:02;;;;;;;0.50;0.40;;;;;;;;;;10401485;28;20228;-73
2022/08/07 15:41:08;;;;;;;2.10;0.70;;;;;;;;;;10396818;28;20320;-74
2022/08/07 15:46:21;;;;;;;2.50;0.60;;;;;;;;;;10394000;28;20234;-74
2022/08/07 15:51:23;;;;;;;0.30;0.30;;;;;;;;;;10394040;28;20232;-73
2022/08/07 15:56:28;;;;;;;2.00;0.60;;;;;;;;;;10397350;28;20263;-73
2022/08/07 16:01:34;;;;;;;1.23;0.50;;;;;;;;;;10407552;28;20235;-72
2022/08/07 16:06:39;;;;;;;0.53;0.40;;;;;;;;;;10395808;28;20232;-73
2022/08/07 16:11:47;;;;;;;0.63;0.53;;;;;;;;;;10405138;28;20268;-73
2022/08/07 16:16:49;;;;;;;2.17;0.70;;;;;;;;;;10390521;28;20235;-73
2022/08/07 16:22:12;;;;;;;0.67;0.60;;;;;;;;;;10407730;28;20278;-72
2022/08/07 16:27:25;;;;;;;1.17;0.70;;;;;;;;;;10392646;28;20228;-74
2022/08/07 16:32:27;;;;;;;2.07;1.80;;;;;;;;;;10404385;28;20255;-73
2022/08/07 16:37:42;;;;;;;1.57;0.67;;;;;;;;;;10394489;28;20225;-73
2022/08/07 16:42:46;;;;;;;0.47;0.40;;;;;;;;;;10389980;28;20232;-73
2022/08/07 16:47:47;;;;;;;0.63;0.33;;;;;;;;;;10396515;28;20288;-73
2022/08/07 16:52:47;;;;;;;0.80;0.70;;;;;;;;;;10389549;28;20295;-73
2022/08/07 16:58:12;;;;;;;0.83;0.70;;;;;;;;;;10397288;28;20312;-74
2022/08/07 17:03:13;;;;;;;1.40;1.00;;;;;;;;;;10385311;28;20226;-74
2022/08/07 17:08:37;;;;;;;1.13;0.73;;;;;;;;;;10401217;28;20231;-74
2022/08/07 17:13:40;;;;;;;1.13;0.80;;;;;;;;;;10386151;28;20220;-73
2022/08/07 17:18:54;;;;;;;1.63;1.00;;;;;;;;;;10401305;28;20217;-73
2022/08/07 17:24:01;;;;;;;3.23;0.90;;;;;;;;;;10398192;28;20216;-73
2022/08/07 17:29:20;;;;;;;0.97;0.63;;;;;;;;;;10407599;28;20223;-73
2022/08/07 17:34:28;;;;;;;0.60;0.60;;;;;;;;;;10392213;28;20232;-73
2022/08/07 17:39:49;;;;;;;1.10;0.87;;;;;;;;;;10391814;28;20227;-74
2022/08/07 17:44:51;;;;;;;0.83;0.80;;;;;;;;;;10397151;28;20232;-73
2022/08/07 17:49:56;;;;;;;1.00;0.70;;;;;;;;;;10397759;28;20223;-73
2022/08/07 17:55:18;;;;;;;0.70;0.60;;;;;;;;;;10399345;28;20236;-73
2022/08/07 18:00:21;;;;;;;0.73;0.60;;;;;;;;;;10399468;28;20286;-73
2022/08/07 18:05:30;;;;;;;0.70;0.60;;;;;;;;;;10391428;28;20193;-74
2022/08/07 18:10:50;;;;;;;1.27;1.10;;;;;;;;;;10405313;28;20303;-72
2022/08/07 18:15:55;;;;;;;1.60;0.60;;;;;;;;;;10396240;28;20231;-74
2022/08/07 18:21:08;;;;;;;1.50;0.80;;;;;;;;;;10402357;28;20232;-73
2022/08/07 18:26:12;;;;;;;1.07;0.60;;;;;;;;;;10388457;28;20221;-73
2022/08/07 18:31:19;;;;;;;2.67;0.60;;;;;;;;;;10403394;28;20217;-74
2022/08/07 18:36:22;;;;;;;0.77;0.70;;;;;;;;;;10364989;28;20692;-73
2022/08/07 18:41:36;;;;;;;0.50;0.50;;;;;;;;;;10397384;28;20244;-74
2022/08/07 18:46:40;;;;;;;2.53;0.93;;;;;;;;;;10397692;28;20263;-73
2022/08/07 18:51:44;;;;;;;3.63;0.80;;;;;;;;;;10403689;28;20228;-74
2022/08/07 18:56:46;;;;;;;0.87;0.83;;;;;;;;;;10393731;28;20245;-74
2022/08/07 19:02:16;;;;;;;1.27;0.90;;;;;;;;;;10398373;28;20285;-73
2022/08/07 19:07:36;;;;;;;0.80;0.80;;;;;;;;;;10336505;28;20305;-73
2022/08/07 19:12:54;;;;;;;1.23;0.70;;;;;;;;;;10398727;28;20219;-73
2022/08/07 19:18:05;;;;;;;1.27;0.70;;;;;;;;;;10394430;28;20290;-73
2022/08/07 19:23:08;;;;;;;1.47;0.80;;;;;;;;;;10402849;28;20240;-73
2022/08/07 19:28:13;;;;;;;0.70;0.60;;;;;;;;;;10392762;28;20226;-73
2022/08/07 19:33:15;;;;;;;2.03;0.80;;;;;;;;;;10395754;28;20229;-74
2022/08/07 19:38:16;;;;;;;1.53;1.00;;;;;;;;;;10395612;28;20224;-74
2022/08/07 19:43:22;;;;;;;1.53;0.90;;;;;;;;;;10393606;28;20236;-73
2022/08/07 19:49:02;;;;;;;1.67;0.67;;;;;;;;;;10395451;28;20312;-74
2022/08/07 19:54:03;;;;;;;1.47;0.83;;;;;;;;;;10308725;28;20235;-73
2022/08/07 19:59:12;;;;;;;1.13;0.90;;;;;;;;;;10380982;28;20216;-74
2022/08/07 20:04:15;;;;;;;2.10;1.00;;;;;;;;;;10368319;28;20220;-72
2022/08/07 20:09:16;;;;;;;1.33;0.90;;;;;;;;;;10401810;28;20579;-73
2022/08/07 20:14:24;;;;;;;2.53;1.37;;;;;;;;;;10384528;28;20229;-72
2022/08/07 20:19:26;;;;;;;2.80;1.53;;;;;;;;;;10400434;28;20232;-72
2022/08/07 20:24:30;;;;;;;2.63;1.27;;;;;;;;;;10401843;28;20228;-72
2022/08/07 20:29:34;;;;;;;2.00;1.10;;;;;;;;;;10409942;28;20221;-74
2022/08/07 20:34:36;;;;;;;2.40;1.10;;;;;;;;;;10393236;28;20647;-73
2022/08/07 20:39:39;;;;;;;2.80;1.00;;;;;;;;;;10402416;28;20224;-72
2022/08/07 20:44:41;;;;;;;1.90;0.90;;;;;;;;;;10391144;28;20298;-73
2022/08/07 20:49:48;;;;;;;3.30;1.07;;;;;;;;;;10395566;28;20216;-74
2022/08/07 20:54:49;;;;;;;2.80;1.30;;;;;;;;;;10388208;28;20282;-73
2022/08/07 20:59:51;;;;;;;1.70;1.50;;;;;;;;;;10393316;28;20209;-72
2022/08/07 21:04:53;;;;;;;1.37;1.17;;;;;;;;;;10402558;28;20217;-73
2022/08/07 21:09:54;;;;;;;1.93;1.40;;;;;;;;;;10387392;28;21045;-73
2022/08/07 21:14:56;;;;;;;2.10;1.10;;;;;;;;;;10406697;28;20236;-73
2022/08/07 21:19:58;;;;;;;2.90;1.20;;;;;;;;;;10392688;28;20224;-73
2022/08/07 21:25:08;;;;;;;2.90;1.30;;;;;;;;;;10404180;28;20600;-73
2022/08/07 21:30:14;;;;;;;2.50;1.00;;;;;;;;;;10401965;28;20255;-73
2022/08/07 21:35:20;;;;;;;1.40;1.10;;;;;;;;;;10400553;28;20292;-73
2022/08/07 21:40:36;;;;;;;2.73;0.80;;;;;;;;;;10391135;28;20205;-72
2022/08/07 21:45:44;;;;;;;2.27;0.90;;;;;;;;;;10404144;28;20256;-73
2022/08/07 21:51:04;;;;;;;3.13;0.93;;;;;;;;;;10401194;28;20271;-73
2022/08/07 21:56:26;;;;;;;2.50;1.10;;;;;;;;;;10402214;28;20355;-73
2022/08/07 22:01:56;;;;;;;3.57;0.90;;;;;;;;;;10400029;28;20236;-72
2022/08/07 22:07:02;;;;;;;2.07;1.00;;;;;;;;;;10369581;28;20311;-72
2022/08/07 22:12:20;;;;;;;1.90;1.20;;;;;;;;;;10398181;28;20216;-72
2022/08/07 22:17:23;;;;;;;1.13;0.73;;;;;;;;;;10384816;28;20311;-73
2022/08/07 22:22:28;;;;;;;1.77;0.90;;;;;;;;;;10403608;28;20303;-72
2022/08/07 22:27:29;;;;;;;3.43;0.93;;;;;;;;;;10411781;28;20341;-72
2022/08/07 22:32:42;;;;;;;1.40;0.73;;;;;;;;;;10405599;28;20282;-73
2022/08/07 22:37:52;;;;;;;2.43;0.80;;;;;;;;;;10397903;28;20224;-73
2022/08/07 22:42:57;;;;;;;1.23;0.63;;;;;;;;;;10406236;28;20250;-73
2022/08/07 22:48:12;;;;;;;1.00;0.90;;;;;;;;;;10403691;28;20232;-72
2022/08/07 22:53:32;;;;;;;2.57;0.73;;;;;;;;;;10388130;28;20263;-74
2022/08/07 22:58:33;;;;;;;1.43;0.90;;;;;;;;;;10401145;28;20291;-72
2022/08/07 23:03:37;;;;;;;4.83;0.80;;;;;;;;;;10403706;28;20224;-72
2022/08/07 23:08:56;;;;;;;1.33;0.80;;;;;;;;;;10393743;28;20679;-73
2022/08/07 23:14:16;;;;;;;1.23;0.60;;;;;;;;;;10399243;28;20232;-73
2022/08/07 23:25:08;;;;;;;1.97;0.70;;;;;;;;;;10406070;28;20593;-73
2022/08/07 23:30:13;;;;;;;1.50;0.70;;;;;;;;;;10389877;28;20295;-73
2022/08/07 23:35:21;;;;;;;1.33;0.70;;;;;;;;;;10411388;28;20616;-73
2022/08/07 23:40:25;;;;;;;0.90;0.50;;;;;;;;;;10403992;28;20185;-73
2022/08/07 23:45:45;;;;;;;3.50;0.90;;;;;;;;;;10405669;28;20629;-72
2022/08/07 23:50:49;;;;;;;1.37;0.90;;;;;;;;;;10402992;28;20223;-71
2022/08/07 23:55:50;;;;;;;4.27;0.80;;;;;;;;;;10407026;28;20737;-72
